sensor_id;sensor_type;location;lat;lon;timestamp;pressure;altitude;pressure_sealevel;temperature;humidity
62057;BME280;48016;50.284;18.860;2023-04-01T00:00:57;96425.19;;;7.84;75.96
62057;BME280;48016;50.284;18.860;2023-04-01T00:03:24;96424.83;;;7.83;75.82
62057;BME280;48016;50.284;18.860;2023-04-01T00:05:56;96420.07;;;7.83;75.90
62057;BME280;48016;50.284;18.860;2023-04-01T00:08:23;96422.73;;;7.83;75.81
62057;BME280;48016;50.284;18.860;2023-04-01T00:10:49;96419.73;;;7.81;75.80
62057;BME280;48016;50.284;18.860;2023-04-01T00:13:15;96417.27;;;7.78;75.68
62057;BME280;48016;50.284;18.860;2023-04-01T00:15:42;96419.69;;;7.73;75.57
62057;BME280;48016;50.284;18.860;2023-04-01T00:18:08;96421.24;;;7.66;75.59
62057;BME280;48016;50.284;18.860;2023-04-01T00:20:34;96418.28;;;7.61;75.72
62057;BME280;48016;50.284;18.860;2023-04-01T00:23:00;96417.77;;;7.58;75.72
62057;BME280;48016;50.284;18.860;2023-04-01T00:25:27;96413.98;;;7.53;75.75
62057;BME280;48016;50.284;18.860;2023-04-01T00:27:52;96414.33;;;7.51;75.91
62057;BME280;48016;50.284;18.860;2023-04-01T00:30:19;96415.84;;;7.52;76.06
62057;BME280;48016;50.284;18.860;2023-04-01T00:32:44;96415.50;;;7.53;76.15
62057;BME280;48016;50.284;18.860;2023-04-01T00:35:11;96413.88;;;7.54;76.16
62057;BME280;48016;50.284;18.860;2023-04-01T00:37:38;96413.23;;;7.53;76.22
62057;BME280;48016;50.284;18.860;2023-04-01T00:40:07;96410.77;;;7.52;76.21
62057;BME280;48016;50.284;18.860;2023-04-01T00:42:33;96409.38;;;7.51;76.12
62057;BME280;48016;50.284;18.860;2023-04-01T00:48:00;96411.16;;;7.45;76.26
62057;BME280;48016;50.284;18.860;2023-04-01T00:50:28;96411.43;;;7.43;76.30
62057;BME280;48016;50.284;18.860;2023-04-01T00:52:56;96415.11;;;7.40;76.27
62057;BME280;48016;50.284;18.860;2023-04-01T00:55:23;96417.95;;;7.34;76.24
62057;BME280;48016;50.284;18.860;2023-04-01T00:57:51;96422.77;;;7.31;76.40
62057;BME280;48016;50.284;18.860;2023-04-01T01:00:19;96422.84;;;7.28;76.48
62057;BME280;48016;50.284;18.860;2023-04-01T01:02:46;96426.61;;;7.25;76.65
62057;BME280;48016;50.284;18.860;2023-04-01T01:05:16;96426.64;;;7.22;76.74
62057;BME280;48016;50.284;18.860;2023-04-01T01:10:19;96426.85;;;7.22;77.18
62057;BME280;48016;50.284;18.860;2023-04-01T01:13:13;96425.98;;;7.23;76.98
62057;BME280;48016;50.284;18.860;2023-04-01T01:15:46;96423.06;;;7.24;77.22
62057;BME280;48016;50.284;18.860;2023-04-01T01:21:00;96419.27;;;7.23;77.13
62057;BME280;48016;50.284;18.860;2023-04-01T01:29:04;96412.56;;;7.28;77.42
62057;BME280;48016;50.284;18.860;2023-04-01T01:37:13;96403.27;;;7.28;77.48
62057;BME280;48016;50.284;18.860;2023-04-01T01:39:43;96403.38;;;7.27;77.36
62057;BME280;48016;50.284;18.860;2023-04-01T01:42:13;96403.96;;;7.25;77.35
62057;BME280;48016;50.284;18.860;2023-04-01T01:44:42;96406.48;;;7.22;77.38
62057;BME280;48016;50.284;18.860;2023-04-01T01:47:10;96402.15;;;7.20;77.44
62057;BME280;48016;50.284;18.860;2023-04-01T01:49:38;96403.61;;;7.16;77.52
62057;BME280;48016;50.284;18.860;2023-04-01T01:52:06;96407.17;;;7.16;77.60
62057;BME280;48016;50.284;18.860;2023-04-01T01:54:32;96405.49;;;7.15;77.73
62057;BME280;48016;50.284;18.860;2023-04-01T01:57:07;96406.09;;;7.15;77.75
62057;BME280;48016;50.284;18.860;2023-04-01T01:59:38;96400.56;;;7.15;77.78
62057;BME280;48016;50.284;18.860;2023-04-01T02:02:06;96403.90;;;7.13;78.05
62057;BME280;48016;50.284;18.860;2023-04-01T02:04:36;96400.48;;;7.16;78.09
62057;BME280;48016;50.284;18.860;2023-04-01T02:07:08;96404.20;;;7.17;78.21
62057;BME280;48016;50.284;18.860;2023-04-01T02:09:37;96406.17;;;7.19;78.32
62057;BME280;48016;50.284;18.860;2023-04-01T02:12:06;96403.67;;;7.22;78.32
62057;BME280;48016;50.284;18.860;2023-04-01T02:14:39;96402.96;;;7.24;78.37
62057;BME280;48016;50.284;18.860;2023-04-01T02:17:11;96405.42;;;7.25;78.51
62057;BME280;48016;50.284;18.860;2023-04-01T02:19:40;96404.98;;;7.27;78.37
62057;BME280;48016;50.284;18.860;2023-04-01T02:22:14;96407.77;;;7.28;78.45
62057;BME280;48016;50.284;18.860;2023-04-01T02:24:41;96407.55;;;7.29;78.58
62057;BME280;48016;50.284;18.860;2023-04-01T02:27:09;96411.52;;;7.31;78.68
62057;BME280;48016;50.284;18.860;2023-04-01T02:29:36;96412.41;;;7.33;78.47
62057;BME280;48016;50.284;18.860;2023-04-01T02:32:02;96414.09;;;7.33;78.59
62057;BME280;48016;50.284;18.860;2023-04-01T02:34:29;96415.87;;;7.32;78.59
62057;BME280;48016;50.284;18.860;2023-04-01T02:36:55;96421.20;;;7.32;78.63
62057;BME280;48016;50.284;18.860;2023-04-01T02:39:21;96421.06;;;7.34;78.89
62057;BME280;48016;50.284;18.860;2023-04-01T02:41:48;96422.83;;;7.37;78.79
62057;BME280;48016;50.284;18.860;2023-04-01T02:44:15;96426.52;;;7.40;78.75
62057;BME280;48016;50.284;18.860;2023-04-01T02:46:41;96420.60;;;7.41;78.80
62057;BME280;48016;50.284;18.860;2023-04-01T02:49:07;96422.56;;;7.42;78.83
62057;BME280;48016;50.284;18.860;2023-04-01T02:51:34;96427.19;;;7.44;78.74
62057;BME280;48016;50.284;18.860;2023-04-01T02:54:00;96427.88;;;7.45;78.80
62057;BME280;48016;50.284;18.860;2023-04-01T02:56:26;96430.23;;;7.47;78.78
62057;BME280;48016;50.284;18.860;2023-04-01T02:58:53;96430.09;;;7.50;78.82
62057;BME280;48016;50.284;18.860;2023-04-01T03:01:20;96428.29;;;7.53;78.71
62057;BME280;48016;50.284;18.860;2023-04-01T03:03:46;96429.09;;;7.55;78.69
62057;BME280;48016;50.284;18.860;2023-04-01T03:06:17;96429.02;;;7.56;78.65
62057;BME280;48016;50.284;18.860;2023-04-01T03:08:44;96432.45;;;7.58;78.76
62057;BME280;48016;50.284;18.860;2023-04-01T03:11:10;96436.21;;;7.59;78.66
62057;BME280;48016;50.284;18.860;2023-04-01T03:13:40;96440.56;;;7.60;78.71
62057;BME280;48016;50.284;18.860;2023-04-01T03:16:06;96438.89;;;7.61;78.61
62057;BME280;48016;50.284;18.860;2023-04-01T03:18:32;96436.19;;;7.61;78.50
62057;BME280;48016;50.284;18.860;2023-04-01T03:21:18;96432.98;;;7.58;78.54
62057;BME280;48016;50.284;18.860;2023-04-01T03:23:45;96435.84;;;7.58;78.56
62057;BME280;48016;50.284;18.860;2023-04-01T03:26:11;96435.19;;;7.58;78.60
62057;BME280;48016;50.284;18.860;2023-04-01T03:28:37;96432.09;;;7.56;78.56
62057;BME280;48016;50.284;18.860;2023-04-01T03:31:03;96436.17;;;7.56;78.60
62057;BME280;48016;50.284;18.860;2023-04-01T03:33:29;96438.77;;;7.56;78.59
62057;BME280;48016;50.284;18.860;2023-04-01T03:35:55;96433.47;;;7.57;78.62
62057;BME280;48016;50.284;18.860;2023-04-01T03:38:21;96433.14;;;7.59;78.61
62057;BME280;48016;50.284;18.860;2023-04-01T03:40:47;96435.13;;;7.61;78.64
62057;BME280;48016;50.284;18.860;2023-04-01T03:43:13;96435.11;;;7.62;78.47
62057;BME280;48016;50.284;18.860;2023-04-01T03:45:47;96440.47;;;7.63;78.49
62057;BME280;48016;50.284;18.860;2023-04-01T03:48:16;96436.50;;;7.63;78.49
62057;BME280;48016;50.284;18.860;2023-04-01T03:50:42;96439.36;;;7.62;78.45
62057;BME280;48016;50.284;18.860;2023-04-01T03:53:09;96438.39;;;7.61;78.47
62057;BME280;48016;50.284;18.860;2023-04-01T03:55:36;96438.45;;;7.60;78.39
62057;BME280;48016;50.284;18.860;2023-04-01T03:58:02;96436.86;;;7.57;78.42
62057;BME280;48016;50.284;18.860;2023-04-01T04:00:29;96438.55;;;7.55;78.55
62057;BME280;48016;50.284;18.860;2023-04-01T04:02:56;96439.45;;;7.56;78.70
62057;BME280;48016;50.284;18.860;2023-04-01T04:05:23;96440.09;;;7.57;78.58
62057;BME280;48016;50.284;18.860;2023-04-01T04:07:49;96442.41;;;7.59;78.62
62057;BME280;48016;50.284;18.860;2023-04-01T04:10:16;96440.73;;;7.59;78.54
62057;BME280;48016;50.284;18.860;2023-04-01T04:12:42;96436.32;;;7.57;78.61
62057;BME280;48016;50.284;18.860;2023-04-01T04:15:08;96434.45;;;7.58;78.64
62057;BME280;48016;50.284;18.860;2023-04-01T04:17:34;96436.91;;;7.59;78.76
62057;BME280;48016;50.284;18.860;2023-04-01T04:20:01;96436.63;;;7.60;78.82
62057;BME280;48016;50.284;18.860;2023-04-01T04:22:27;96433.16;;;7.64;78.82
62057;BME280;48016;50.284;18.860;2023-04-01T04:24:53;96434.73;;;7.67;78.73
62057;BME280;48016;50.284;18.860;2023-04-01T04:27:19;96433.98;;;7.68;78.78
62057;BME280;48016;50.284;18.860;2023-04-01T04:29:45;96433.27;;;7.71;78.80
62057;BME280;48016;50.284;18.860;2023-04-01T04:32:11;96430.48;;;7.75;78.71
62057;BME280;48016;50.284;18.860;2023-04-01T04:34:37;96433.54;;;7.77;78.64
62057;BME280;48016;50.284;18.860;2023-04-01T04:37:03;96432.65;;;7.79;78.81
62057;BME280;48016;50.284;18.860;2023-04-01T04:39:29;96430.06;;;7.81;78.62
62057;BME280;48016;50.284;18.860;2023-04-01T04:41:55;96432.30;;;7.82;78.71
62057;BME280;48016;50.284;18.860;2023-04-01T04:44:21;96432.40;;;7.84;78.63
62057;BME280;48016;50.284;18.860;2023-04-01T04:46:47;96430.25;;;7.88;78.65
62057;BME280;48016;50.284;18.860;2023-04-01T04:49:13;96432.48;;;7.92;78.59
62057;BME280;48016;50.284;18.860;2023-04-01T04:51:39;96436.11;;;7.97;78.61
62057;BME280;48016;50.284;18.860;2023-04-01T04:54:06;96436.45;;;8.00;78.60
62057;BME280;48016;50.284;18.860;2023-04-01T04:56:33;96438.91;;;8.02;78.52
62057;BME280;48016;50.284;18.860;2023-04-01T04:58:59;96438.82;;;8.05;78.55
62057;BME280;48016;50.284;18.860;2023-04-01T05:01:25;96440.39;;;8.10;78.51
62057;BME280;48016;50.284;18.860;2023-04-01T05:03:51;96445.77;;;8.16;78.44
62057;BME280;48016;50.284;18.860;2023-04-01T05:06:17;96442.91;;;8.22;78.37
62057;BME280;48016;50.284;18.860;2023-04-01T05:08:44;96447.04;;;8.29;78.27
62057;BME280;48016;50.284;18.860;2023-04-01T05:11:16;96440.30;;;8.34;78.08
62057;BME280;48016;50.284;18.860;2023-04-01T05:13:42;96441.75;;;8.35;77.97
62057;BME280;48016;50.284;18.860;2023-04-01T05:16:10;96442.11;;;8.36;78.10
62057;BME280;48016;50.284;18.860;2023-04-01T05:18:37;96442.33;;;8.40;77.97
62057;BME280;48016;50.284;18.860;2023-04-01T05:21:03;96441.44;;;8.43;77.97
62057;BME280;48016;50.284;18.860;2023-04-01T05:23:30;96444.77;;;8.47;77.94
62057;BME280;48016;50.284;18.860;2023-04-01T05:26:08;96444.17;;;8.53;77.89
62057;BME280;48016;50.284;18.860;2023-04-01T05:28:35;96450.30;;;8.58;77.69
62057;BME280;48016;50.284;18.860;2023-04-01T05:31:02;96447.15;;;8.62;77.66
62057;BME280;48016;50.284;18.860;2023-04-01T05:33:29;96445.77;;;8.64;77.59
62057;BME280;48016;50.284;18.860;2023-04-01T05:35:56;96446.14;;;8.65;77.38
62057;BME280;48016;50.284;18.860;2023-04-01T05:38:22;96447.91;;;8.65;77.38
62057;BME280;48016;50.284;18.860;2023-04-01T05:40:48;96447.24;;;8.66;77.35
62057;BME280;48016;50.284;18.860;2023-04-01T05:43:14;96449.60;;;8.68;77.35
62057;BME280;48016;50.284;18.860;2023-04-01T05:45:40;96451.52;;;8.70;77.29
62057;BME280;48016;50.284;18.860;2023-04-01T05:48:06;96446.90;;;8.73;77.28
62057;BME280;48016;50.284;18.860;2023-04-01T05:50:32;96447.70;;;8.73;77.13
62057;BME280;48016;50.284;18.860;2023-04-01T05:52:58;96449.56;;;8.75;77.10
62057;BME280;48016;50.284;18.860;2023-04-01T05:55:24;96449.02;;;8.76;77.06
62057;BME280;48016;50.284;18.860;2023-04-01T05:57:50;96452.45;;;8.76;77.02
62057;BME280;48016;50.284;18.860;2023-04-01T06:00:17;96451.89;;;8.79;77.03
62057;BME280;48016;50.284;18.860;2023-04-01T06:02:43;96456.97;;;8.82;77.00
62057;BME280;48016;50.284;18.860;2023-04-01T06:07:39;96458.84;;;8.92;76.77
62057;BME280;48016;50.284;18.860;2023-04-01T06:10:17;96462.31;;;8.98;76.67
62057;BME280;48016;50.284;18.860;2023-04-01T06:13:04;96462.11;;;9.01;76.53
62057;BME280;48016;50.284;18.860;2023-04-01T06:15:43;96467.06;;;9.03;76.47
62057;BME280;48016;50.284;18.860;2023-04-01T06:26:37;96470.64;;;9.29;76.18
62057;BME280;48016;50.284;18.860;2023-04-01T06:32:22;96474.02;;;9.46;76.12
62057;BME280;48016;50.284;18.860;2023-04-01T06:46:20;96479.04;;;9.82;75.92
62057;BME280;48016;50.284;18.860;2023-04-01T06:51:37;96476.48;;;9.87;75.24
62057;BME280;48016;50.284;18.860;2023-04-01T06:54:12;96480.71;;;9.82;75.11
62057;BME280;48016;50.284;18.860;2023-04-01T06:56:44;96479.15;;;9.79;75.13
62057;BME280;48016;50.284;18.860;2023-04-01T06:59:17;96480.09;;;9.78;75.16
62057;BME280;48016;50.284;18.860;2023-04-01T07:01:55;96483.23;;;9.76;75.20
62057;BME280;48016;50.284;18.860;2023-04-01T07:04:24;96484.06;;;9.78;75.24
62057;BME280;48016;50.284;18.860;2023-04-01T07:06:58;96484.21;;;9.82;75.21
62057;BME280;48016;50.284;18.860;2023-04-01T07:09:32;96484.52;;;9.87;75.21
62057;BME280;48016;50.284;18.860;2023-04-01T07:12:09;96484.55;;;9.94;75.35
62057;BME280;48016;50.284;18.860;2023-04-01T07:14:37;96483.79;;;10.05;75.51
62057;BME280;48016;50.284;18.860;2023-04-01T07:19:53;96489.38;;;10.23;75.45
62057;BME280;48016;50.284;18.860;2023-04-01T07:22:41;96488.30;;;10.23;75.56
62057;BME280;48016;50.284;18.860;2023-04-01T07:25:13;96493.95;;;10.18;75.44
62057;BME280;48016;50.284;18.860;2023-04-01T07:27:42;96497.65;;;10.10;75.63
62057;BME280;48016;50.284;18.860;2023-04-01T07:30:14;96497.53;;;10.04;75.78
62057;BME280;48016;50.284;18.860;2023-04-01T07:32:58;96499.91;;;10.00;75.86
62057;BME280;48016;50.284;18.860;2023-04-01T07:35:41;96501.13;;;9.91;75.92
62057;BME280;48016;50.284;18.860;2023-04-01T07:38:52;96505.44;;;9.89;76.07
62057;BME280;48016;50.284;18.860;2023-04-01T07:47:39;96504.70;;;10.27;75.91
62057;BME280;48016;50.284;18.860;2023-04-01T07:50:12;96507.85;;;10.50;75.93
62057;BME280;48016;50.284;18.860;2023-04-01T07:52:56;96510.83;;;10.61;75.83
62057;BME280;48016;50.284;18.860;2023-04-01T08:06:45;96514.52;;;11.13;75.34
62057;BME280;48016;50.284;18.860;2023-04-01T08:09:37;96514.29;;;11.17;75.16
62057;BME280;48016;50.284;18.860;2023-04-01T08:15:03;96519.85;;;11.17;74.19
62057;BME280;48016;50.284;18.860;2023-04-01T08:25:49;96529.66;;;11.24;74.55
62057;BME280;48016;50.284;18.860;2023-04-01T08:28:25;96530.95;;;11.24;74.45
62057;BME280;48016;50.284;18.860;2023-04-01T08:33:33;96528.73;;;11.41;74.53
62057;BME280;48016;50.284;18.860;2023-04-01T08:41:28;96522.30;;;11.40;74.21
62057;BME280;48016;50.284;18.860;2023-04-01T09:03:37;96525.15;;;11.63;75.08
62057;BME280;48016;50.284;18.860;2023-04-01T09:06:20;96524.34;;;12.00;74.86
62057;BME280;48016;50.284;18.860;2023-04-01T09:09:05;96521.61;;;12.10;74.45
62057;BME280;48016;50.284;18.860;2023-04-01T09:11:50;96525.85;;;12.02;74.36
62057;BME280;48016;50.284;18.860;2023-04-01T09:25:34;96537.76;;;11.89;74.76
62057;BME280;48016;50.284;18.860;2023-04-01T09:28:19;96537.58;;;12.03;74.83
62057;BME280;48016;50.284;18.860;2023-04-01T09:36:50;96535.01;;;12.51;74.39
62057;BME280;48016;50.284;18.860;2023-04-01T09:48:17;96533.88;;;12.59;73.87
62057;BME280;48016;50.284;18.860;2023-04-01T10:10:47;96544.39;;;12.09;73.20
62057;BME280;48016;50.284;18.860;2023-04-01T10:16:29;96549.97;;;11.90;73.31
62057;BME280;48016;50.284;18.860;2023-04-01T10:41:58;96536.17;;;12.48;73.32
62057;BME280;48016;50.284;18.860;2023-04-01T10:50:23;96540.11;;;12.51;72.51
62057;BME280;48016;50.284;18.860;2023-04-01T10:56:29;96538.57;;;12.62;72.44
62057;BME280;48016;50.284;18.860;2023-04-01T11:07:41;96538.96;;;12.82;71.14
62057;BME280;48016;50.284;18.860;2023-04-01T11:38:22;96523.61;;;13.43;67.38
62057;BME280;48016;50.284;18.860;2023-04-01T11:41:15;96528.89;;;13.35;67.53
62057;BME280;48016;50.284;18.860;2023-04-01T11:53:20;96531.92;;;12.84;68.17
62057;BME280;48016;50.284;18.860;2023-04-01T11:58:22;96529.22;;;12.67;68.41
62057;BME280;48016;50.284;18.860;2023-04-01T12:17:33;96540.48;;;12.40;69.68
62057;BME280;48016;50.284;18.860;2023-04-01T12:22:53;96545.86;;;12.42;69.49
62057;BME280;48016;50.284;18.860;2023-04-01T12:42:36;96548.69;;;13.02;67.58
62057;BME280;48016;50.284;18.860;2023-04-01T12:48:05;96552.94;;;12.99;66.55
62057;BME280;48016;50.284;18.860;2023-04-01T12:51:07;96554.64;;;12.91;66.35
62057;BME280;48016;50.284;18.860;2023-04-01T12:56:47;96554.88;;;12.83;66.27
62057;BME280;48016;50.284;18.860;2023-04-01T13:05:09;96561.70;;;12.58;66.44
62057;BME280;48016;50.284;18.860;2023-04-01T13:10:20;96563.77;;;12.56;66.24
62057;BME280;48016;50.284;18.860;2023-04-01T13:27:05;96568.31;;;13.02;65.92
62057;BME280;48016;50.284;18.860;2023-04-01T13:29:41;96570.84;;;13.05;66.04
62057;BME280;48016;50.284;18.860;2023-04-01T13:40:02;96593.92;;;12.54;67.58
62057;BME280;48016;50.284;18.860;2023-04-01T13:42:40;96601.21;;;12.35;68.36
62057;BME280;48016;50.284;18.860;2023-04-01T13:45:17;96602.89;;;12.28;69.21
62057;BME280;48016;50.284;18.860;2023-04-01T13:50:48;96604.88;;;12.26;69.82
62057;BME280;48016;50.284;18.860;2023-04-01T13:53:31;96603.67;;;12.36;70.92
62057;BME280;48016;50.284;18.860;2023-04-01T13:56:15;96598.86;;;12.49;70.61
62057;BME280;48016;50.284;18.860;2023-04-01T14:18:17;96608.77;;;12.82;70.55
62057;BME280;48016;50.284;18.860;2023-04-01T14:31:59;96633.92;;;12.35;70.40
62057;BME280;48016;50.284;18.860;2023-04-01T14:40:21;96626.74;;;11.80;70.43
62057;BME280;48016;50.284;18.860;2023-04-01T14:51:09;96628.12;;;11.73;71.42
62057;BME280;48016;50.284;18.860;2023-04-01T14:53:38;96628.87;;;11.73;71.83
62057;BME280;48016;50.284;18.860;2023-04-01T14:56:11;96626.69;;;11.69;72.29
62057;BME280;48016;50.284;18.860;2023-04-01T14:58:45;96636.91;;;11.62;72.50
62057;BME280;48016;50.284;18.860;2023-04-01T15:06:45;96629.15;;;11.22;73.01
62057;BME280;48016;50.284;18.860;2023-04-01T15:11:57;96628.69;;;11.03;73.28
62057;BME280;48016;50.284;18.860;2023-04-01T15:31:46;96654.13;;;10.73;73.43
62057;BME280;48016;50.284;18.860;2023-04-01T15:34:21;96656.05;;;10.64;73.88
62057;BME280;48016;50.284;18.860;2023-04-01T15:40:36;96671.69;;;10.53;74.28
62057;BME280;48016;50.284;18.860;2023-04-01T15:48:49;96677.21;;;10.34;74.81
62057;BME280;48016;50.284;18.860;2023-04-01T15:51:24;96678.28;;;10.27;75.01
62057;BME280;48016;50.284;18.860;2023-04-01T15:54:12;96680.41;;;10.24;75.11
62057;BME280;48016;50.284;18.860;2023-04-01T15:57:21;96674.92;;;10.18;75.62
62057;BME280;48016;50.284;18.860;2023-04-01T16:11:28;96684.23;;;9.81;76.24
62057;BME280;48016;50.284;18.860;2023-04-01T16:23:09;96683.65;;;9.74;76.56
62057;BME280;48016;50.284;18.860;2023-04-01T16:25:52;96682.82;;;9.72;76.39
62057;BME280;48016;50.284;18.860;2023-04-01T16:28:30;96685.61;;;9.69;76.32
62057;BME280;48016;50.284;18.860;2023-04-01T16:31:11;96690.03;;;9.65;76.21
62057;BME280;48016;50.284;18.860;2023-04-01T16:47:27;96719.10;;;9.37;77.10
62057;BME280;48016;50.284;18.860;2023-04-01T16:53:02;96727.30;;;9.31;77.39
62057;BME280;48016;50.284;18.860;2023-04-01T16:58:08;96734.53;;;9.30;77.61
62057;BME280;48016;50.284;18.860;2023-04-01T17:01:04;96738.55;;;9.28;77.62
62057;BME280;48016;50.284;18.860;2023-04-01T17:03:44;96743.33;;;9.24;77.66
62057;BME280;48016;50.284;18.860;2023-04-01T17:11:28;96756.77;;;9.22;78.06
62057;BME280;48016;50.284;18.860;2023-04-01T17:17:07;96769.93;;;9.16;78.20
62057;BME280;48016;50.284;18.860;2023-04-01T17:19:49;96773.18;;;9.15;78.50
62057;BME280;48016;50.284;18.860;2023-04-01T17:22:32;96774.64;;;9.14;78.45
62057;BME280;48016;50.284;18.860;2023-04-01T17:45:45;96806.23;;;9.10;79.61
62057;BME280;48016;50.284;18.860;2023-04-01T17:54:23;96816.20;;;9.09;79.68
62057;BME280;48016;50.284;18.860;2023-04-01T17:57:09;96819.89;;;9.07;79.99
62057;BME280;48016;50.284;18.860;2023-04-01T17:59:38;96822.48;;;9.06;80.14
62057;BME280;48016;50.284;18.860;2023-04-01T18:10:49;96831.71;;;9.05;80.33
62057;BME280;48016;50.284;18.860;2023-04-01T18:24:18;96846.60;;;8.95;80.56
62057;BME280;48016;50.284;18.860;2023-04-01T18:29:48;96849.11;;;8.91;80.75
62057;BME280;48016;50.284;18.860;2023-04-01T18:32:24;96853.64;;;8.90;80.72
62057;BME280;48016;50.284;18.860;2023-04-01T18:40:00;96858.42;;;8.84;80.78
62057;BME280;48016;50.284;18.860;2023-04-01T18:45:22;96865.92;;;8.81;80.89
62057;BME280;48016;50.284;18.860;2023-04-01T18:50:54;96875.29;;;8.76;80.75
62057;BME280;48016;50.284;18.860;2023-04-01T18:53:27;96880.20;;;8.72;81.13
62057;BME280;48016;50.284;18.860;2023-04-01T18:55:58;96883.29;;;8.70;81.23
62057;BME280;48016;50.284;18.860;2023-04-01T18:58:30;96881.77;;;8.69;81.33
62057;BME280;48016;50.284;18.860;2023-04-01T19:01:15;96883.56;;;8.68;81.50
62057;BME280;48016;50.284;18.860;2023-04-01T19:06:35;96881.47;;;8.67;81.60
62057;BME280;48016;50.284;18.860;2023-04-01T19:09:18;96884.72;;;8.65;81.51
62057;BME280;48016;50.284;18.860;2023-04-01T19:25:48;96896.20;;;8.48;82.50
62057;BME280;48016;50.284;18.860;2023-04-01T19:34:14;96904.09;;;8.43;83.25
62057;BME280;48016;50.284;18.860;2023-04-01T19:36:52;96909.27;;;8.43;82.97
62057;BME280;48016;50.284;18.860;2023-04-01T19:42:14;96911.42;;;8.42;83.07
62057;BME280;48016;50.284;18.860;2023-04-01T19:52:49;96919.17;;;8.41;83.50
62057;BME280;48016;50.284;18.860;2023-04-01T19:58:26;96925.53;;;8.41;83.58
62057;BME280;48016;50.284;18.860;2023-04-01T20:00:58;96929.64;;;8.40;83.81
62057;BME280;48016;50.284;18.860;2023-04-01T20:03:34;96932.10;;;8.40;84.07
62057;BME280;48016;50.284;18.860;2023-04-01T20:06:34;96932.31;;;8.43;83.83
62057;BME280;48016;50.284;18.860;2023-04-01T20:14:48;96936.31;;;8.40;83.82
62057;BME280;48016;50.284;18.860;2023-04-01T20:19:59;96939.25;;;8.38;83.87
62057;BME280;48016;50.284;18.860;2023-04-01T20:25:24;96941.95;;;8.36;84.00
62057;BME280;48016;50.284;18.860;2023-04-01T20:28:02;96944.85;;;8.35;84.03
62057;BME280;48016;50.284;18.860;2023-04-01T20:30:34;96945.38;;;8.35;84.07
62057;BME280;48016;50.284;18.860;2023-04-01T20:39:20;96950.72;;;8.34;84.35
62057;BME280;48016;50.284;18.860;2023-04-01T20:52:25;96964.16;;;8.39;84.61
62057;BME280;48016;50.284;18.860;2023-04-01T21:01:12;96970.50;;;8.39;84.76
62057;BME280;48016;50.284;18.860;2023-04-01T21:09:31;96977.92;;;8.37;85.03
62057;BME280;48016;50.284;18.860;2023-04-01T21:17:14;96986.77;;;8.42;85.10
62057;BME280;48016;50.284;18.860;2023-04-01T21:22:59;96987.40;;;8.47;85.14
62057;BME280;48016;50.284;18.860;2023-04-01T21:39:47;96999.36;;;8.54;85.15
62057;BME280;48016;50.284;18.860;2023-04-01T21:55:39;97001.19;;;8.52;85.16
62057;BME280;48016;50.284;18.860;2023-04-01T22:08:59;97013.27;;;8.41;85.48
62057;BME280;48016;50.284;18.860;2023-04-01T22:14:27;97014.88;;;8.37;85.70
62057;BME280;48016;50.284;18.860;2023-04-01T22:17:02;97018.26;;;8.36;85.76
62057;BME280;48016;50.284;18.860;2023-04-01T22:22:28;97020.91;;;8.29;85.99
62057;BME280;48016;50.284;18.860;2023-04-01T22:25:08;97025.98;;;8.28;85.86
62057;BME280;48016;50.284;18.860;2023-04-01T22:27:52;97029.75;;;8.28;85.84
62057;BME280;48016;50.284;18.860;2023-04-01T22:30:30;97029.25;;;8.29;85.92
62057;BME280;48016;50.284;18.860;2023-04-01T22:33:11;97029.86;;;8.30;86.00
62057;BME280;48016;50.284;18.860;2023-04-01T22:44:01;97027.91;;;8.36;85.85
62057;BME280;48016;50.284;18.860;2023-04-01T22:46:56;97029.41;;;8.36;85.82
62057;BME280;48016;50.284;18.860;2023-04-01T22:49:41;97022.25;;;8.29;86.21
62057;BME280;48016;50.284;18.860;2023-04-01T22:54:52;97035.94;;;8.23;86.08
62057;BME280;48016;50.284;18.860;2023-04-01T22:57:50;97040.39;;;8.24;86.13
62057;BME280;48016;50.284;18.860;2023-04-01T23:00:25;97045.85;;;8.25;86.08
62057;BME280;48016;50.284;18.860;2023-04-01T23:03:28;97047.61;;;8.27;86.22
62057;BME280;48016;50.284;18.860;2023-04-01T23:06:01;97049.39;;;8.30;86.34
62057;BME280;48016;50.284;18.860;2023-04-01T23:16:50;97055.19;;;8.40;86.09
62057;BME280;48016;50.284;18.860;2023-04-01T23:24:50;97056.27;;;8.40;86.05
62057;BME280;48016;50.284;18.860;2023-04-01T23:27:35;97055.61;;;8.40;86.00
62057;BME280;48016;50.284;18.860;2023-04-01T23:30:03;97056.80;;;8.39;86.03
62057;BME280;48016;50.284;18.860;2023-04-01T23:32:30;97055.77;;;8.39;86.14
62057;BME280;48016;50.284;18.860;2023-04-01T23:34:58;97057.48;;;8.36;85.95
62057;BME280;48016;50.284;18.860;2023-04-01T23:37:26;97058.60;;;8.32;85.96
62057;BME280;48016;50.284;18.860;2023-04-01T23:39:54;97060.44;;;8.26;86.03
62057;BME280;48016;50.284;18.860;2023-04-01T23:42:24;97064.54;;;8.25;86.20
62057;BME280;48016;50.284;18.860;2023-04-01T23:45:15;97067.27;;;8.22;85.98
62057;BME280;48016;50.284;18.860;2023-04-01T23:47:43;97068.73;;;8.22;86.10
62057;BME280;48016;50.284;18.860;2023-04-01T23:50:18;97066.42;;;8.22;86.12
62057;BME280;48016;50.284;18.860;2023-04-01T23:52:54;97067.05;;;8.21;86.16
62057;BME280;48016;50.284;18.860;2023-04-01T23:55:31;97069.91;;;8.20;86.19
